DIAP Airport Information

Runway Information
Runway 03 Length 9843 ft width 164 ft
Elevation 21 ft Threshold 0 ft Heading 23
Runway 21 Length 9843 ft Width 164 ft
Elevation 11 ft Threshold 0 ft Heading 203
Airport Frequencies
Type A/G Name RDO Frequency 568 MHZ
Type ACC Name CON Frequency 121.1 MHZ
Type AFIS Name INFO Frequency 129.1 MHZ
Type ATIS Name ATIS Frequency 126.6 MHZ
Type MISC Name VHF/DF Frequency 118.1 MHZ
Type TWR Name TWR Frequency 118.1 MHZ
Airport Navaids
Type VOR-DME Name Abidjan Frequency 114300 KHZ
Type NDB Name Abidjan Frequency 306 KHZ
Type NDB Name Abidjan Felix Houphouet Boigny Frequency 294 KHZ
Airport Weather Information & NOTAM
ADDS - METARS form results

(1211 UTC 26 January 2022)
Data provider http://aviationweather.gov/metar/data/
 
METAR text: DIAP 261200Z 25007KT 210V280 7000 FEW020 31/24 Q1010 NOSIG
Conditions at: DIAP (ABIDJAN/PORT BOU, CI) observed 1200 UTC 26 January 2022
Temperature: 31.0°C (88°F)
Dewpoint: 24.0°C (75°F) [RH = 66%]
Pressure (altimeter): 29.82 inches Hg (1010.0 mb)
Winds: from the WSW (250 degrees) at 8 MPH (7 knots; 3.6 m/s)
Visibility: 4 miles ( 7 km)
Ceiling: at least 12,000 feet AGL
Clouds: few clouds at 2000 feet AGL
Weather: no significant weather observed at this time

METAR text: DIAP 261130Z 27007KT 220V330 7000 FEW020 30/23 Q1010 NOSIG
Conditions at: DIAP (ABIDJAN/PORT BOU, CI) observed 1130 UTC 26 January 2022
Temperature: 30.0°C (86°F)
Dewpoint: 23.0°C (73°F) [RH = 66%]
Pressure (altimeter): 29.82 inches Hg (1010.0 mb)
Winds: from the W (270 degrees) at 8 MPH (7 knots; 3.6 m/s)
Visibility: 4 miles ( 7 km)
Ceiling: at least 12,000 feet AGL
Clouds: few clouds at 2000 feet AGL
Weather: no significant weather observed at this time

Forecast for: DIAP (ABIDJAN/PORT BOU, CI)
Text: TAF DIAP 261100Z 2612/2718 26008KT 7000 FEW020
Forecast period: 1200 UTC 26 January 2022 to 1800 UTC 27 January 2022
Forecast type: FROM: standard forecast or significant change
Winds: from the W (260 degrees) at 9 MPH (8 knots; 4.1 m/s)
Visibility: 4 miles (7 km)
Ceiling: at least 12,000 feet AGL
Clouds: few clouds at 2000 feet AGL
Weather: no significant weather forecast for this period
Text: TEMPO 2705/2708 3000 BR
Forecast period: 0500 to 0800 UTC 27 January 2022
Forecast type: TEMPORARY: The following changes expected for less than half the time period
Visibility: 1.86 miles (2.99 km)
Ceiling: unknown
Clouds: missing
Weather: BR  (mist)